createdAt,value
2022-08-29T00:00:18.140Z,97255.84
2022-08-29T00:02:47.973Z,97270.78
2022-08-29T00:05:19.947Z,97267.34
2022-08-29T00:07:53.390Z,97276.03
2022-08-29T00:10:26.715Z,97278.53
2022-08-29T00:12:57.769Z,97272.19
2022-08-29T00:15:26.770Z,97274.91
2022-08-29T00:17:55.080Z,97276.63
2022-08-29T00:20:30.417Z,97273.56
2022-08-29T00:23:03.192Z,97272.16
2022-08-29T00:25:32.095Z,97269.75
2022-08-29T00:28:01.872Z,97275.13
2022-08-29T00:30:30.069Z,97275.13
2022-08-29T00:32:58.359Z,97275.41
2022-08-29T00:35:29.270Z,97273.97
2022-08-29T00:37:59.509Z,97268.88
2022-08-29T00:40:33.891Z,97271.59
2022-08-29T00:43:03.900Z,97266.47
2022-08-29T00:45:33.016Z,97268.34
2022-08-29T00:48:03.817Z,97263.88
2022-08-29T00:50:34.727Z,97266.78
2022-08-29T00:53:04.768Z,97263.50
2022-08-29T00:55:35.747Z,97268.25
2022-08-29T00:58:07.845Z,97277.91
2022-08-29T01:00:36.895Z,97277.28
2022-08-29T01:03:05.729Z,97276.91
2022-08-29T01:05:34.289Z,97283.47
2022-08-29T01:08:02.388Z,97289.63
2022-08-29T01:10:48.219Z,97287.97
2022-08-29T01:13:17.869Z,97295.78
2022-08-29T01:15:47.239Z,97296.00
2022-08-29T01:18:16.778Z,97272.00
2022-08-29T01:20:51.896Z,97292.31
2022-08-29T01:23:23.142Z,97290.66
2022-08-29T01:25:53.529Z,97297.63
2022-08-29T01:28:23.947Z,97301.13
2022-08-29T01:31:00.552Z,97292.72
2022-08-29T01:33:38.541Z,97292.72
2022-08-29T01:36:07.611Z,97299.50
2022-08-29T01:38:35.760Z,97291.50
2022-08-29T01:41:05.720Z,97296.41
2022-08-29T01:43:40.278Z,97298.44
2022-08-29T01:46:09.267Z,97294.13
2022-08-29T01:48:39.156Z,97295.16
2022-08-29T01:51:07.679Z,97281.84
2022-08-29T01:53:36.378Z,97281.41
2022-08-29T01:56:13.300Z,97293.31
2022-08-29T01:58:41.851Z,97291.47
2022-08-29T02:01:10.668Z,97284.91
2022-08-29T02:03:38.909Z,97285.72
2022-08-29T02:06:10.217Z,97291.88
2022-08-29T02:08:38.581Z,97295.56
2022-08-29T02:11:10.200Z,97291.25
2022-08-29T02:13:40.751Z,97290.00
2022-08-29T02:16:09.324Z,97285.13
2022-08-29T02:18:37.511Z,97285.31
2022-08-29T02:21:06.009Z,97288.19
2022-08-29T02:23:36.068Z,97281.38
2022-08-29T02:26:05.020Z,97282.63
2022-08-29T02:28:33.777Z,97285.91
2022-08-29T02:31:03.946Z,97287.78
2022-08-29T02:33:32.819Z,97283.88
2022-08-29T02:36:19.352Z,97272.59
2022-08-29T02:38:48.011Z,97279.19
2022-08-29T02:41:16.299Z,97284.47
2022-08-29T02:43:44.941Z,97276.28
2022-08-29T02:46:19.307Z,97277.72
2022-08-29T02:48:56.933Z,97277.88
2022-08-29T02:51:31.161Z,97279.91
2022-08-29T02:53:59.697Z,97288.16
2022-08-29T02:56:28.359Z,97289.75
2022-08-29T02:58:56.591Z,97294.47
2022-08-29T03:01:28.295Z,97297.50
2022-08-29T03:03:56.561Z,97302.75
2022-08-29T03:06:24.909Z,97299.47
2022-08-29T03:08:54.185Z,97301.28
2022-08-29T03:11:22.830Z,97302.72
2022-08-29T03:13:51.117Z,97298.19
2022-08-29T03:16:19.558Z,97300.03
2022-08-29T03:18:49.171Z,97303.06
2022-08-29T03:21:19.870Z,97296.34
2022-08-29T03:23:48.721Z,97297.53
2022-08-29T03:26:16.937Z,97296.47
2022-08-29T03:28:45.311Z,97299.13
2022-08-29T03:31:13.900Z,97302.41
2022-08-29T03:33:42.160Z,97315.06
2022-08-29T03:36:14.016Z,97306.88
2022-08-29T03:38:43.760Z,97304.44
2022-08-29T03:41:12.544Z,97310.72
2022-08-29T03:43:40.942Z,97298.00
2022-08-29T03:46:09.129Z,97314.75
2022-08-29T03:48:37.371Z,97309.28
2022-08-29T03:51:05.571Z,97312.94
2022-08-29T03:53:35.282Z,97312.06
2022-08-29T03:56:05.102Z,97316.38
2022-08-29T03:58:33.466Z,97317.00
2022-08-29T04:01:02.582Z,97321.88
2022-08-29T04:03:31.021Z,97325.34
2022-08-29T04:06:00.363Z,97326.75
2022-08-29T04:08:28.608Z,97328.13
2022-08-29T04:10:58.190Z,97326.72
2022-08-29T04:13:26.380Z,97329.38
2022-08-29T04:15:54.916Z,97342.44
2022-08-29T04:18:23.242Z,97338.78
2022-08-29T04:20:52.023Z,97345.72
2022-08-29T04:23:20.110Z,97341.16
2022-08-29T04:25:48.371Z,97342.59
2022-08-29T04:28:17.877Z,97336.47
2022-08-29T04:30:51.322Z,97337.50
2022-08-29T04:33:22.450Z,97339.94
2022-08-29T04:35:51.453Z,97348.13
2022-08-29T04:38:19.698Z,97343.63
2022-08-29T04:40:48.131Z,97345.72
2022-08-29T04:43:17.710Z,97356.72
2022-08-29T04:45:45.954Z,97349.56
2022-08-29T04:48:14.091Z,97348.94
2022-08-29T04:50:42.290Z,97347.72
2022-08-29T04:53:10.525Z,97350.00
2022-08-29T04:55:38.761Z,97347.44
2022-08-29T04:58:10.128Z,97351.72
2022-08-29T05:00:40.382Z,97353.59
2022-08-29T05:03:08.730Z,97355.69
2022-08-29T05:05:37.011Z,97352.47
2022-08-29T05:08:05.391Z,97353.28
2022-08-29T05:10:34.542Z,97356.63
2022-08-29T05:13:02.672Z,97358.03
2022-08-29T05:15:31.676Z,97358.72
2022-08-29T05:18:01.359Z,97361.22
2022-08-29T05:20:29.568Z,97370.25
2022-08-29T05:22:57.953Z,97368.03
2022-08-29T05:25:26.289Z,97365.81
2022-08-29T05:27:54.450Z,97361.19
2022-08-29T05:30:34.517Z,97358.97
2022-08-29T05:33:04.954Z,97364.16
2022-08-29T05:35:33.276Z,97360.91
2022-08-29T05:38:03.754Z,97359.91
2022-08-29T05:40:36.326Z,97361.78
2022-08-29T05:43:04.979Z,97353.78
2022-08-29T05:45:35.067Z,97362.84
2022-08-29T05:48:08.331Z,97363.66
2022-08-29T05:50:39.790Z,97362.41
2022-08-29T05:53:07.954Z,97368.59
2022-08-29T05:55:40.128Z,97366.94
2022-08-29T05:58:08.524Z,97366.53
2022-08-29T06:00:39.577Z,97366.94
2022-08-29T06:03:10.783Z,97362.66
2022-08-29T06:05:39.373Z,97362.19
2022-08-29T06:08:07.771Z,97370.22
2022-08-29T06:10:36.316Z,97366.50
2022-08-29T06:13:04.476Z,97370.97
2022-08-29T06:15:33.419Z,97364.97
2022-08-29T06:18:01.591Z,97368.06
2022-08-29T06:20:31.179Z,97366.19
2022-08-29T06:22:59.383Z,97355.50
2022-08-29T06:25:39.519Z,97366.88
2022-08-29T06:28:08.455Z,97369.28
2022-08-29T06:30:36.701Z,97366.88
2022-08-29T06:33:05.033Z,97366.94
2022-08-29T06:35:34.633Z,97367.44
2022-08-29T06:38:02.724Z,97369.47
2022-08-29T06:40:31.114Z,97365.91
2022-08-29T06:43:07.394Z,97369.63
2022-08-29T06:45:41.778Z,97373.84
2022-08-29T06:48:09.913Z,97371.22
2022-08-29T06:50:45.641Z,97367.81
2022-08-29T06:53:27.521Z,97368.25
2022-08-29T06:56:06.246Z,97361.94
2022-08-29T06:58:40.811Z,97354.94
2022-08-29T07:01:11.064Z,97366.38
2022-08-29T07:03:41.363Z,97370.13
2022-08-29T07:06:11.763Z,97365.13
2022-08-29T07:08:54.754Z,97377.06
2022-08-29T07:11:24.771Z,97371.94
2022-08-29T07:13:52.997Z,97362.31
2022-08-29T07:16:21.184Z,97365.41
2022-08-29T07:18:51.378Z,97373.44
2022-08-29T07:21:23.728Z,97369.13
2022-08-29T07:23:52.357Z,97377.53
2022-08-29T07:26:22.428Z,97376.09
2022-08-29T07:28:52.127Z,97369.44
2022-08-29T07:31:22.007Z,97361.47
2022-08-29T07:33:53.381Z,97364.16
2022-08-29T07:36:32.355Z,97364.84
2022-08-29T07:39:02.657Z,97362.63
2022-08-29T07:41:32.057Z,97371.13
2022-08-29T07:44:00.256Z,97371.03
2022-08-29T07:46:28.401Z,97373.09
2022-08-29T07:48:57.197Z,97373.59
2022-08-29T07:51:25.838Z,97377.34
2022-08-29T07:53:56.015Z,97366.81
2022-08-29T07:56:25.860Z,97370.63
2022-08-29T07:58:55.167Z,97365.97
2022-08-29T08:01:24.026Z,97373.44
2022-08-29T08:03:53.976Z,97364.84
2022-08-29T08:06:24.064Z,97374.81
2022-08-29T08:08:57.337Z,97375.41
2022-08-29T08:11:26.647Z,97370.31
2022-08-29T08:13:55.405Z,97364.81
2022-08-29T08:16:25.167Z,97375.16
2022-08-29T08:18:53.937Z,97377.56
2022-08-29T08:21:22.616Z,97379.75
2022-08-29T08:23:50.887Z,97380.13
2022-08-29T08:26:21.259Z,97383.78
2022-08-29T08:28:49.647Z,97387.22
2022-08-29T08:31:18.663Z,97390.19
2022-08-29T08:33:47.507Z,97391.34
2022-08-29T08:36:17.999Z,97393.81
2022-08-29T08:38:46.669Z,97393.97
2022-08-29T08:41:27.025Z,97399.72
2022-08-29T08:43:58.638Z,97397.66
2022-08-29T08:46:30.634Z,97402.00
2022-08-29T08:49:02.256Z,97399.38
2022-08-29T08:51:33.680Z,97391.66
2022-08-29T08:54:04.516Z,97400.16
2022-08-29T08:56:37.026Z,97398.06
2022-08-29T08:59:08.868Z,97398.69
2022-08-29T09:01:43.443Z,97396.28
2022-08-29T09:04:27.328Z,97395.59
2022-08-29T09:07:10.004Z,97389.69
2022-08-29T09:09:46.487Z,97393.75
2022-08-29T09:12:27.690Z,97392.91
2022-08-29T09:15:04.358Z,97392.66
2022-08-29T09:17:41.578Z,97391.56
2022-08-29T09:20:13.526Z,97390.13
2022-08-29T09:22:44.607Z,97394.50
2022-08-29T09:25:14.186Z,97398.34
2022-08-29T09:27:43.778Z,97388.59
2022-08-29T09:30:16.241Z,97384.88
2022-08-29T09:32:54.956Z,97387.91
2022-08-29T09:35:26.891Z,97391.25
2022-08-29T09:38:01.287Z,97394.44
2022-08-29T09:40:46.460Z,97394.69
2022-08-29T09:43:21.747Z,97364.34
2022-08-29T09:46:05.569Z,97390.09
2022-08-29T09:48:35.720Z,97387.81
2022-08-29T09:51:13.840Z,97394.53
2022-08-29T09:53:42.839Z,97382.88
2022-08-29T09:56:17.690Z,97382.09
2022-08-29T09:58:58.432Z,97379.97
2022-08-29T10:01:28.587Z,97379.41
2022-08-29T10:03:59.761Z,97374.13
2022-08-29T10:06:30.096Z,97373.66
2022-08-29T10:09:01.749Z,97369.94
2022-08-29T10:11:34.810Z,97369.69
2022-08-29T10:14:07.298Z,97373.97
2022-08-29T10:16:47.582Z,97367.25
2022-08-29T10:19:20.578Z,97372.09
2022-08-29T10:21:56.970Z,97369.94
2022-08-29T10:24:55.254Z,97367.53
2022-08-29T10:27:32.627Z,97369.97
2022-08-29T10:30:08.737Z,97360.47
2022-08-29T10:32:56.585Z,97358.59
2022-08-29T10:35:27.819Z,97367.88
2022-08-29T10:37:58.849Z,97360.31
2022-08-29T10:40:30.718Z,97371.78
2022-08-29T10:43:13.671Z,97371.88
2022-08-29T10:45:53.378Z,97361.88
2022-08-29T10:48:23.207Z,97372.31
2022-08-29T10:50:59.337Z,97374.72
2022-08-29T10:53:30.798Z,97371.38
2022-08-29T10:56:04.432Z,97367.09
2022-08-29T10:58:47.808Z,97377.03
2022-08-29T11:01:21.245Z,97374.72
2022-08-29T11:03:54.402Z,97374.13
2022-08-29T11:06:27.147Z,97373.63
2022-08-29T11:08:58.452Z,97366.00
2022-08-29T11:11:27.052Z,97368.84
2022-08-29T11:14:03.499Z,97371.38
2022-08-29T11:16:38.045Z,97377.28
2022-08-29T11:19:12.736Z,97367.53
2022-08-29T11:21:42.717Z,97372.47
2022-08-29T11:24:11.438Z,97372.88
2022-08-29T11:26:49.049Z,97368.28
2022-08-29T11:29:25.359Z,97362.03
2022-08-29T11:32:00.730Z,97366.59
2022-08-29T11:34:35.088Z,97371.66
2022-08-29T11:37:32.399Z,97359.22
2022-08-29T11:40:04.287Z,97359.78
2022-08-29T11:42:51.044Z,97364.97
2022-08-29T11:45:25.939Z,97358.75
2022-08-29T11:48:20.950Z,97352.50
2022-08-29T11:50:49.787Z,97353.72
2022-08-29T11:53:34.127Z,97352.28
2022-08-29T11:56:22.546Z,97340.59
2022-08-29T11:58:53.448Z,97345.28
2022-08-29T12:02:01.534Z,97334.19
2022-08-29T12:04:54.983Z,97330.44
2022-08-29T12:07:33.734Z,97337.81
2022-08-29T12:10:03.979Z,97339.78
2022-08-29T12:12:47.617Z,97339.47
2022-08-29T12:16:00.067Z,97334.22
2022-08-29T12:18:38.279Z,97330.75
2022-08-29T12:21:48.849Z,97330.47
2022-08-29T12:24:39.994Z,97325.38
2022-08-29T12:27:27.459Z,97318.91
2022-08-29T12:29:55.757Z,97318.47
2022-08-29T12:32:39.991Z,97316.09
2022-08-29T12:35:22.286Z,97321.50
2022-08-29T12:38:00.657Z,97317.13
2022-08-29T12:40:47.402Z,97315.78
2022-08-29T12:43:23.942Z,97318.13
2022-08-29T12:45:53.170Z,97313.09
2022-08-29T12:48:25.468Z,97300.19
2022-08-29T12:50:54.102Z,97303.22
2022-08-29T12:53:24.611Z,97296.25
2022-08-29T12:55:56.782Z,97300.97
2022-08-29T12:58:42.557Z,97299.16
2022-08-29T13:01:23.001Z,97300.09
2022-08-29T13:04:02.286Z,97301.22
2022-08-29T13:06:31.348Z,97292.94
2022-08-29T13:08:59.600Z,97294.19
2022-08-29T13:11:31.441Z,97290.94
2022-08-29T13:14:08.646Z,97285.94
2022-08-29T13:16:37.093Z,97289.66
2022-08-29T13:19:11.217Z,97286.34
2022-08-29T13:21:40.026Z,97280.91
2022-08-29T13:24:12.892Z,97282.47
2022-08-29T13:26:50.451Z,97271.44
2022-08-29T13:29:36.686Z,97277.56
2022-08-29T13:32:18.928Z,97268.63
2022-08-29T13:35:01.939Z,97269.25
2022-08-29T13:37:33.548Z,97266.63
2022-08-29T13:40:33.572Z,97262.88
2022-08-29T13:43:03.496Z,97261.34
2022-08-29T13:45:32.427Z,97258.72
2022-08-29T13:48:20.570Z,97253.78
2022-08-29T13:50:48.793Z,97262.34
2022-08-29T13:53:17.107Z,97263.25
2022-08-29T13:55:45.336Z,97257.38
2022-08-29T13:58:15.968Z,97252.81
2022-08-29T14:00:44.997Z,97249.25
2022-08-29T14:03:16.997Z,97245.84
2022-08-29T14:05:45.600Z,97241.75
2022-08-29T14:08:14.594Z,97250.41
2022-08-29T14:10:42.958Z,97240.56
2022-08-29T14:13:11.122Z,97238.03
2022-08-29T14:15:40.782Z,97243.81
2022-08-29T14:18:09.057Z,97235.16
2022-08-29T14:20:39.158Z,97234.75
2022-08-29T14:23:07.589Z,97226.97
2022-08-29T14:25:35.920Z,97225.75
2022-08-29T14:28:04.567Z,97227.06
2022-08-29T14:30:32.975Z,97236.25
2022-08-29T14:33:02.600Z,97236.34
2022-08-29T14:35:31.949Z,97237.03
2022-08-29T14:38:01.418Z,97233.75
2022-08-29T14:40:30.536Z,97231.19
2022-08-29T14:42:59.219Z,97230.97
2022-08-29T14:45:28.079Z,97229.81
2022-08-29T14:47:56.378Z,97221.66
2022-08-29T14:50:26.176Z,97223.09
2022-08-29T14:52:54.589Z,97221.19
2022-08-29T14:55:23.115Z,97219.06
2022-08-29T14:57:51.488Z,97216.81
2022-08-29T15:00:21.540Z,97216.59
2022-08-29T15:02:50.482Z,97207.56
2022-08-29T15:05:18.999Z,97219.41
2022-08-29T15:07:48.677Z,97207.75
2022-08-29T15:10:19.098Z,97212.66
2022-08-29T15:12:47.360Z,97207.22
2022-08-29T15:15:15.610Z,97203.97
2022-08-29T15:17:44.846Z,97206.03
2022-08-29T15:23:04.399Z,97205.53
2022-08-29T15:25:32.687Z,97199.91
2022-08-29T15:28:00.846Z,97195.75
2022-08-29T15:30:29.023Z,97194.59
2022-08-29T15:32:57.189Z,97201.38
2022-08-29T15:35:25.437Z,97195.22
2022-08-29T15:37:54.516Z,97196.38
2022-08-29T15:40:24.126Z,97196.81
2022-08-29T15:42:52.366Z,97202.69
2022-08-29T15:45:22.559Z,97193.63
2022-08-29T15:47:51.372Z,97193.94
2022-08-29T15:50:22.652Z,97201.06
2022-08-29T15:52:50.739Z,97197.28
2022-08-29T15:55:18.857Z,97199.72
2022-08-29T15:57:51.365Z,97193.53
2022-08-29T16:00:29.717Z,97199.31
2022-08-29T16:02:59.979Z,97194.69
2022-08-29T16:05:28.665Z,97190.38
2022-08-29T16:07:56.751Z,97187.13
2022-08-29T16:10:24.956Z,97194.19
2022-08-29T16:12:54.456Z,97188.75
2022-08-29T16:15:22.602Z,97178.25
2022-08-29T16:17:50.757Z,97193.69
2022-08-29T16:20:19.597Z,97191.25
2022-08-29T16:22:47.787Z,97195.84
2022-08-29T16:25:16.692Z,97191.56
2022-08-29T16:27:44.826Z,97192.38
2022-08-29T16:30:15.225Z,97191.84
2022-08-29T16:32:43.586Z,97185.63
2022-08-29T16:35:12.923Z,97179.13
2022-08-29T16:37:41.207Z,97178.28
2022-08-29T16:40:10.972Z,97180.47
2022-08-29T16:42:39.573Z,97181.53
2022-08-29T16:45:09.880Z,97182.00
2022-08-29T16:47:39.666Z,97190.59
2022-08-29T16:50:12.129Z,97191.63
2022-08-29T16:52:40.645Z,97194.81
2022-08-29T16:55:09.886Z,97178.88
2022-08-29T16:57:38.078Z,97189.34
2022-08-29T17:00:09.876Z,97184.50
2022-08-29T17:02:39.339Z,97185.56
2022-08-29T17:05:08.817Z,97193.38
2022-08-29T17:07:35.676Z,97187.97
2022-08-29T17:10:04.037Z,97188.22
2022-08-29T17:12:30.965Z,97183.88
2022-08-29T17:14:57.919Z,97180.84
2022-08-29T17:17:25.988Z,97181.88
2022-08-29T17:19:55.456Z,97185.34
2022-08-29T17:22:23.615Z,97182.81
2022-08-29T17:24:51.629Z,97186.88
2022-08-29T17:27:21.665Z,97188.91
2022-08-29T17:29:50.340Z,97186.47
2022-08-29T17:32:18.655Z,97192.00
2022-08-29T17:34:48.116Z,97181.66
2022-08-29T17:37:17.589Z,97189.66
2022-08-29T17:39:45.676Z,97186.78
2022-08-29T17:42:14.476Z,97180.72
2022-08-29T17:44:43.026Z,97188.41
2022-08-29T17:47:12.078Z,97188.66
2022-08-29T17:49:40.206Z,97190.22
2022-08-29T17:52:08.260Z,97196.38
2022-08-29T17:54:37.926Z,97188.19
2022-08-29T17:57:06.236Z,97192.94
2022-08-29T17:59:35.803Z,97197.94
2022-08-29T18:02:05.317Z,97190.28
2022-08-29T18:04:33.947Z,97197.47
2022-08-29T18:07:02.068Z,97195.16
2022-08-29T18:09:30.546Z,97196.75
2022-08-29T18:11:59.934Z,97201.31
2022-08-29T18:14:28.756Z,97197.81
2022-08-29T18:16:57.681Z,97206.53
2022-08-29T18:19:27.169Z,97205.78
2022-08-29T18:21:55.599Z,97204.44
2022-08-29T18:24:23.709Z,97212.41
2022-08-29T18:26:52.256Z,97202.47
2022-08-29T18:29:22.017Z,97204.81
2022-08-29T18:31:50.257Z,97218.00
2022-08-29T18:34:19.107Z,97222.56
2022-08-29T18:36:47.816Z,97219.69
2022-08-29T18:39:17.128Z,97229.59
2022-08-29T18:41:45.218Z,97229.28
2022-08-29T18:44:14.046Z,97227.28
2022-08-29T18:46:47.914Z,97236.56
2022-08-29T18:49:16.878Z,97243.13
2022-08-29T18:51:45.016Z,97250.50
2022-08-29T18:54:17.448Z,97255.13
2022-08-29T18:56:46.993Z,97260.97
2022-08-29T18:59:15.080Z,97262.47
2022-08-29T19:01:44.775Z,97265.16
2022-08-29T19:04:12.946Z,97258.63
2022-08-29T19:06:41.118Z,97262.78
2022-08-29T19:09:09.245Z,97238.50
2022-08-29T19:11:37.645Z,97260.19
2022-08-29T19:14:05.775Z,97253.44
2022-08-29T19:16:37.062Z,97275.41
2022-08-29T19:19:06.654Z,97268.16
2022-08-29T19:21:42.510Z,97267.34
2022-08-29T19:24:10.636Z,97270.25
2022-08-29T19:26:40.182Z,97275.63
2022-08-29T19:29:12.772Z,97274.25
2022-08-29T19:31:41.151Z,97261.31
2022-08-29T19:34:11.535Z,97267.50
2022-08-29T19:36:43.088Z,97274.53
2022-08-29T19:39:15.889Z,97271.59
2022-08-29T19:41:44.128Z,97263.78
2022-08-29T19:44:12.185Z,97259.59
2022-08-29T19:46:48.667Z,97265.53
2022-08-29T19:49:19.360Z,97268.19
2022-08-29T19:51:47.385Z,97268.41
2022-08-29T19:54:16.435Z,97268.47
2022-08-29T19:56:46.835Z,97264.72
2022-08-29T19:59:15.164Z,97275.78
2022-08-29T20:01:45.186Z,97272.00
2022-08-29T20:04:13.295Z,97276.25
2022-08-29T20:06:42.685Z,97278.47
2022-08-29T20:09:12.331Z,97288.59
2022-08-29T20:11:43.458Z,97283.34
2022-08-29T20:14:11.949Z,97290.88
2022-08-29T20:16:42.949Z,97289.69
2022-08-29T20:19:12.067Z,97290.16
2022-08-29T20:21:41.177Z,97299.69
2022-08-29T20:24:10.697Z,97296.16
2022-08-29T20:26:43.976Z,97293.88
2022-08-29T20:29:13.104Z,97295.59
2022-08-29T20:31:41.442Z,97297.09
2022-08-29T20:34:09.585Z,97294.25
2022-08-29T20:36:55.165Z,97293.91
2022-08-29T20:39:24.684Z,97291.47
2022-08-29T20:41:55.507Z,97302.78
2022-08-29T20:44:23.876Z,97291.09
2022-08-29T20:46:52.286Z,97296.13
2022-08-29T20:49:23.853Z,97296.94
2022-08-29T20:51:53.138Z,97295.75
2022-08-29T20:54:23.205Z,97298.56
2022-08-29T20:56:53.205Z,97293.97
2022-08-29T20:59:23.551Z,97299.13
2022-08-29T21:01:55.681Z,97306.25
2022-08-29T21:04:41.456Z,97296.31
2022-08-29T21:07:11.886Z,97300.38
2022-08-29T21:09:43.344Z,97298.91
2022-08-29T21:12:14.535Z,97302.94
2022-08-29T21:14:42.635Z,97297.72
2022-08-29T21:17:12.475Z,97298.84
2022-08-29T21:19:41.628Z,97292.03
2022-08-29T21:22:11.754Z,97308.69
2022-08-29T21:24:40.226Z,97295.59
2022-08-29T21:27:08.385Z,97292.59
2022-08-29T21:29:38.059Z,97303.72
2022-08-29T21:32:06.214Z,97308.34
2022-08-29T21:34:34.243Z,97304.66
2022-08-29T21:37:02.236Z,97310.72
2022-08-29T21:39:30.637Z,97314.25
2022-08-29T21:42:02.994Z,97308.38
2022-08-29T21:44:31.357Z,97312.38
2022-08-29T21:47:01.165Z,97304.41
2022-08-29T21:49:30.594Z,97318.16
2022-08-29T21:51:58.568Z,97315.22
2022-08-29T21:54:26.826Z,97317.69
2022-08-29T21:56:54.823Z,97327.84
2022-08-29T21:59:23.097Z,97320.47
2022-08-29T22:01:54.613Z,97327.69
2022-08-29T22:04:28.223Z,97326.06
2022-08-29T22:06:57.535Z,97326.69
2022-08-29T22:09:25.842Z,97315.16
2022-08-29T22:11:54.124Z,97315.22
2022-08-29T22:14:42.175Z,97317.94
2022-08-29T22:17:09.205Z,97319.63
2022-08-29T22:19:38.655Z,97317.22
2022-08-29T22:22:06.867Z,97317.63
2022-08-29T22:24:35.552Z,97317.44
2022-08-29T22:27:03.505Z,97317.69
2022-08-29T22:29:31.665Z,97329.81
2022-08-29T22:32:00.683Z,97322.16
2022-08-29T22:34:28.668Z,97321.56
2022-08-29T22:36:58.081Z,97326.31
2022-08-29T22:39:26.107Z,97322.84
2022-08-29T22:41:55.564Z,97325.53
2022-08-29T22:45:02.325Z,97332.75
2022-08-29T22:47:11.533Z,97329.06
2022-08-29T22:49:40.555Z,97333.97
2022-08-29T22:52:11.699Z,97330.94
2022-08-29T22:54:40.269Z,97342.22
2022-08-29T22:57:09.844Z,97347.97
2022-08-29T22:59:38.764Z,97345.09
2022-08-29T23:02:07.364Z,97344.72
2022-08-29T23:04:35.500Z,97341.69
2022-08-29T23:07:03.664Z,97344.78
2022-08-29T23:09:35.550Z,97340.66
2022-08-29T23:12:05.053Z,97345.16
2022-08-29T23:14:33.297Z,97340.84
2022-08-29T23:17:01.318Z,97345.38
2022-08-29T23:19:29.387Z,97341.25
2022-08-29T23:21:59.364Z,97347.44
2022-08-29T23:24:30.234Z,97346.03
2022-08-29T23:26:59.677Z,97353.19
2022-08-29T23:29:29.705Z,97358.16
2022-08-29T23:31:57.784Z,97352.81
2022-08-29T23:34:25.795Z,97347.47
2022-08-29T23:36:53.884Z,97350.16
2022-08-29T23:39:21.864Z,97354.88
2022-08-29T23:41:49.938Z,97349.94
2022-08-29T23:44:19.635Z,97351.75
2022-08-29T23:46:47.756Z,97349.31
2022-08-29T23:49:15.795Z,97350.97
2022-08-29T23:51:43.849Z,97361.19
2022-08-29T23:54:11.837Z,97349.91
2022-08-29T23:56:39.984Z,97349.94
2022-08-29T23:59:08.027Z,97356.50
